createdAt,value
2022-11-16T00:01:19.477Z,99188.44
2022-11-16T00:04:04.594Z,99185.94
2022-11-16T00:06:49.835Z,99176.47
2022-11-16T00:09:35.041Z,99186.22
2022-11-16T00:12:20.280Z,99160.38
2022-11-16T00:15:06.963Z,99165.88
2022-11-16T00:17:52.075Z,99171.78
2022-11-16T00:20:38.871Z,99170.81
2022-11-16T00:23:24.453Z,99161.06
2022-11-16T00:26:12.816Z,99164.91
2022-11-16T00:28:58.550Z,99163.94
2022-11-16T00:31:44.651Z,99162.28
2022-11-16T00:34:29.812Z,99173.72
2022-11-16T00:37:14.836Z,99167.78
2022-11-16T00:39:59.693Z,99171.22
2022-11-16T00:42:44.908Z,99172.47
2022-11-16T00:45:29.866Z,99193.25
2022-11-16T00:48:15.208Z,99173.13
2022-11-16T00:51:00.284Z,99189.78
2022-11-16T00:53:45.132Z,99188.00
2022-11-16T00:56:30.234Z,99175.88
2022-11-16T00:59:15.328Z,99170.13
2022-11-16T01:02:00.390Z,99157.31
2022-11-16T01:04:45.234Z,99149.88
2022-11-16T01:07:30.307Z,99141.34
2022-11-16T01:10:19.389Z,99152.75
2022-11-16T01:13:04.549Z,99152.19
2022-11-16T01:15:49.456Z,99150.41
2022-11-16T01:18:34.560Z,99144.06
2022-11-16T01:21:21.226Z,99147.81
2022-11-16T01:24:06.665Z,99150.66
2022-11-16T01:26:52.292Z,99151.78
2022-11-16T01:29:37.560Z,99156.03
2022-11-16T01:32:23.164Z,99149.84
2022-11-16T01:35:09.801Z,99150.00
2022-11-16T01:37:55.290Z,99154.41
2022-11-16T01:40:40.704Z,99143.25
2022-11-16T01:43:27.119Z,99150.00
2022-11-16T01:46:11.996Z,99155.75
2022-11-16T01:49:05.813Z,99152.19
2022-11-16T01:52:01.741Z,99149.34
2022-11-16T01:54:49.794Z,99128.13
2022-11-16T01:57:39.831Z,99133.63
2022-11-16T02:00:25.058Z,99133.91
2022-11-16T02:03:10.466Z,99145.19
2022-11-16T02:06:15.365Z,99156.59
2022-11-16T02:09:30.097Z,99147.94
2022-11-16T02:12:44.945Z,99150.81
2022-11-16T02:15:34.961Z,99154.50
2022-11-16T02:18:23.015Z,99149.03
2022-11-16T02:21:26.755Z,99141.34
2022-11-16T02:24:31.333Z,99131.81
2022-11-16T02:27:35.303Z,99129.91
2022-11-16T02:30:21.685Z,99115.31
2022-11-16T02:33:13.312Z,99135.53
2022-11-16T02:36:02.280Z,99136.22
2022-11-16T02:38:55.943Z,99138.84
2022-11-16T02:41:44.256Z,99133.75
2022-11-16T02:44:40.514Z,99136.50
2022-11-16T02:47:30.433Z,99130.47
2022-11-16T02:50:18.812Z,99127.00
2022-11-16T02:53:04.158Z,99113.28
2022-11-16T02:55:49.874Z,99115.63
2022-11-16T02:58:35.175Z,99109.97
2022-11-16T03:01:32.565Z,99116.28
2022-11-16T03:04:28.229Z,99125.34
2022-11-16T03:07:17.295Z,99132.50
2022-11-16T03:10:03.390Z,99135.53
2022-11-16T03:12:48.939Z,99123.19
2022-11-16T03:15:37.521Z,99116.97
2022-11-16T03:18:26.541Z,99125.50
2022-11-16T03:21:19.371Z,99130.03
2022-11-16T03:24:05.760Z,99127.44
2022-11-16T03:26:59.760Z,99116.56
2022-11-16T03:29:47.656Z,99123.19
2022-11-16T03:32:40.707Z,99123.19
2022-11-16T03:35:52.234Z,99104.47
2022-11-16T03:38:40.168Z,99114.38
2022-11-16T03:41:28.026Z,99094.31
2022-11-16T03:44:16.256Z,99077.94
2022-11-16T03:47:01.709Z,99100.63
2022-11-16T03:49:47.946Z,99092.22
2022-11-16T03:52:33.716Z,99105.00
2022-11-16T03:55:18.897Z,99098.53
2022-11-16T03:58:04.894Z,99109.41
2022-11-16T04:00:50.184Z,99104.06
2022-11-16T04:03:35.417Z,99120.44
2022-11-16T04:06:39.737Z,99116.16
2022-11-16T04:09:43.701Z,99100.75
2022-11-16T04:12:47.437Z,99085.06
2022-11-16T04:15:51.364Z,99096.34
2022-11-16T04:18:55.118Z,99086.19
2022-11-16T04:22:05.257Z,99094.44
2022-11-16T04:24:56.801Z,99112.47
2022-11-16T04:28:00.554Z,99126.75
2022-11-16T04:31:07.783Z,99130.41
2022-11-16T04:34:12.228Z,99122.69
2022-11-16T04:37:16.222Z,99102.50
2022-11-16T04:40:01.870Z,99096.19
2022-11-16T04:42:54.146Z,99104.34
2022-11-16T04:45:58.144Z,99073.69
2022-11-16T04:48:43.325Z,99086.03
2022-11-16T04:51:28.329Z,99093.59
2022-11-16T04:54:13.312Z,99099.25
2022-11-16T04:56:58.441Z,99097.34
2022-11-16T04:59:43.371Z,99109.25
2022-11-16T05:02:28.201Z,99129.75
2022-11-16T05:05:13.833Z,99131.38
2022-11-16T05:07:58.640Z,99122.72
2022-11-16T05:10:43.475Z,99109.91
2022-11-16T05:13:28.769Z,99117.59
2022-11-16T05:16:14.004Z,99106.13
2022-11-16T05:19:17.629Z,99098.84
2022-11-16T05:22:02.815Z,99099.22
2022-11-16T05:24:48.069Z,99079.97
2022-11-16T05:27:33.909Z,99077.63
2022-11-16T05:30:18.971Z,99044.09
2022-11-16T05:33:04.133Z,99054.59
2022-11-16T05:35:51.201Z,99050.47
2022-11-16T05:38:36.754Z,99046.75
2022-11-16T05:41:22.332Z,99042.34
2022-11-16T05:44:07.193Z,99033.31
2022-11-16T05:46:52.677Z,99047.06
2022-11-16T05:49:37.911Z,99041.94
2022-11-16T05:52:22.894Z,99026.00
2022-11-16T05:55:08.456Z,99021.47
2022-11-16T05:57:53.637Z,99010.34
2022-11-16T06:00:38.741Z,99010.66
2022-11-16T06:03:23.923Z,99010.25
2022-11-16T06:06:09.426Z,99014.50
2022-11-16T06:08:54.951Z,98991.81
2022-11-16T06:11:40.239Z,99031.59
2022-11-16T06:14:25.582Z,99035.38
2022-11-16T06:17:14.377Z,99043.88
2022-11-16T06:19:59.703Z,99025.44
2022-11-16T06:22:45.093Z,99013.09
2022-11-16T06:25:30.857Z,99024.91
2022-11-16T06:28:16.114Z,99034.06
2022-11-16T06:31:01.618Z,99029.13
2022-11-16T06:33:46.602Z,99009.88
2022-11-16T06:36:31.681Z,99011.28
2022-11-16T06:39:17.061Z,98998.09
2022-11-16T06:42:02.328Z,99012.66
2022-11-16T06:44:47.397Z,99011.81
2022-11-16T06:47:32.680Z,99019.78
2022-11-16T06:50:21.057Z,99015.38
2022-11-16T06:53:06.121Z,99011.38
2022-11-16T06:55:51.056Z,99010.59
2022-11-16T06:58:36.413Z,99004.38
2022-11-16T07:01:21.815Z,98996.44
2022-11-16T07:04:11.800Z,98984.19
2022-11-16T07:06:56.831Z,99000.84
2022-11-16T07:09:44.473Z,98996.44
2022-11-16T07:12:29.614Z,98999.06
2022-11-16T07:15:14.655Z,99002.59
2022-11-16T07:18:04.752Z,98967.78
2022-11-16T07:20:49.579Z,98995.84
2022-11-16T07:23:35.385Z,98993.00
2022-11-16T07:26:21.256Z,98978.56
2022-11-16T07:29:06.232Z,98972.78
2022-11-16T07:31:51.509Z,98953.41
2022-11-16T07:34:36.762Z,98951.47
2022-11-16T07:37:21.614Z,98959.31
2022-11-16T07:40:07.550Z,98967.28
2022-11-16T07:42:52.377Z,98955.75
2022-11-16T07:45:37.641Z,98965.09
2022-11-16T07:48:22.528Z,98954.41
2022-11-16T07:51:09.683Z,98970.31
2022-11-16T07:53:55.893Z,98965.78
2022-11-16T07:56:41.385Z,98963.19
2022-11-16T07:59:27.407Z,98987.22
2022-11-16T08:02:12.334Z,98976.66
2022-11-16T08:04:57.497Z,98971.16
2022-11-16T08:07:42.746Z,98991.22
2022-11-16T08:10:27.766Z,98996.19
2022-11-16T08:13:13.165Z,98975.56
2022-11-16T08:16:12.939Z,98993.00
2022-11-16T08:18:57.959Z,98987.66
2022-11-16T08:21:42.833Z,98988.47
2022-11-16T08:24:28.097Z,98986.56
2022-11-16T08:27:15.352Z,98984.59
2022-11-16T08:30:03.025Z,98986.13
2022-11-16T08:32:47.975Z,98983.38
2022-11-16T08:35:34.057Z,98975.81
2022-11-16T08:38:19.206Z,98970.88
2022-11-16T08:41:04.925Z,98993.69
2022-11-16T08:43:50.765Z,98982.56
2022-11-16T08:46:36.015Z,98987.50
2022-11-16T08:49:21.287Z,98992.56
2022-11-16T08:52:06.868Z,98990.94
2022-11-16T08:54:51.902Z,98984.88
2022-11-16T08:57:37.057Z,98980.34
2022-11-16T09:00:22.118Z,98981.47
2022-11-16T09:03:07.334Z,98984.34
2022-11-16T09:05:52.453Z,98982.16
2022-11-16T09:08:39.328Z,98989.56
2022-11-16T09:11:25.679Z,98982.16
2022-11-16T09:14:11.055Z,98974.31
2022-11-16T09:16:56.149Z,98981.16
2022-11-16T09:19:41.298Z,98993.94
2022-11-16T09:22:26.302Z,98979.53
2022-11-16T09:25:11.599Z,99000.41
2022-11-16T09:27:56.886Z,98996.56
2022-11-16T09:30:47.233Z,99006.03
2022-11-16T09:33:34.127Z,99008.00
2022-11-16T09:36:20.555Z,99003.03
2022-11-16T09:42:41.175Z,99019.53
2022-11-16T09:45:41.644Z,99010.19
2022-11-16T09:48:27.445Z,99023.94
2022-11-16T09:51:15.928Z,99031.22
2022-11-16T09:54:06.057Z,99021.59
2022-11-16T09:56:57.276Z,99020.91
2022-11-16T09:59:47.656Z,99021.88
2022-11-16T10:02:41.848Z,99038.25
2022-11-16T10:05:39.028Z,99029.72
2022-11-16T10:08:51.334Z,99021.72
2022-11-16T10:11:39.502Z,99028.47
2022-11-16T10:14:39.653Z,99000.97
2022-11-16T10:17:46.437Z,99020.81
2022-11-16T10:20:54.838Z,99018.44
2022-11-16T10:23:49.834Z,99006.91
2022-11-16T10:27:03.849Z,99029.28
2022-11-16T10:30:31.105Z,99027.25
2022-11-16T10:33:21.970Z,99019.41
2022-11-16T10:36:13.995Z,99031.63
2022-11-16T10:39:00.884Z,99014.59
2022-11-16T10:41:53.102Z,99011.56
2022-11-16T10:44:47.864Z,99025.97
2022-11-16T10:47:42.525Z,99018.66
2022-11-16T10:50:33.433Z,99020.56
2022-11-16T10:53:38.906Z,99019.19
2022-11-16T10:56:41.402Z,99000.75
2022-11-16T10:59:39.762Z,99013.56
2022-11-16T11:02:24.553Z,99011.53
2022-11-16T11:05:20.333Z,99012.91
2022-11-16T11:08:11.977Z,99018.19
2022-11-16T11:11:24.783Z,99017.31
2022-11-16T11:14:14.315Z,99009.84
2022-11-16T11:17:11.481Z,99001.63
2022-11-16T11:19:59.818Z,99005.22
2022-11-16T11:23:10.837Z,98999.47
2022-11-16T11:25:58.555Z,99000.75
2022-11-16T11:28:49.321Z,98985.09
2022-11-16T11:31:42.768Z,98988.16
2022-11-16T11:34:31.905Z,98953.72
2022-11-16T11:37:20.936Z,98973.00
2022-11-16T11:40:20.177Z,98967.69
2022-11-16T11:43:06.169Z,98963.13
2022-11-16T11:46:02.893Z,98954.38
2022-11-16T11:49:16.273Z,98934.72
2022-11-16T11:52:34.013Z,98952.69
2022-11-16T11:55:19.249Z,98951.88
2022-11-16T11:58:11.069Z,98949.47
2022-11-16T12:01:41.389Z,98952.69
2022-11-16T12:04:35.369Z,98959.91
2022-11-16T12:07:54.510Z,98957.13
2022-11-16T12:10:46.144Z,98949.75
2022-11-16T12:13:34.539Z,98938.50
2022-11-16T12:16:39.193Z,98941.97
2022-11-16T12:19:39.672Z,98949.41
2022-11-16T12:23:03.787Z,98952.66
2022-11-16T12:25:49.287Z,98940.53
2022-11-16T12:28:55.632Z,98947.09
2022-11-16T12:32:00.945Z,98933.41
2022-11-16T12:35:00.895Z,98921.94
2022-11-16T12:37:55.683Z,98917.59
2022-11-16T12:40:52.805Z,98929.06
2022-11-16T12:44:00.872Z,98931.00
2022-11-16T12:47:13.992Z,98924.44
2022-11-16T12:50:17.180Z,98912.00
2022-11-16T12:53:14.205Z,98913.25
2022-11-16T12:56:05.284Z,98883.47
2022-11-16T12:58:59.349Z,98906.81
2022-11-16T13:02:03.144Z,98877.84
2022-11-16T13:04:55.069Z,98887.44
2022-11-16T13:07:48.217Z,98895.31
2022-11-16T13:10:42.848Z,98880.44
2022-11-16T13:13:38.356Z,98883.63
2022-11-16T13:16:24.518Z,98863.63
2022-11-16T13:19:13.392Z,98869.69
2022-11-16T13:22:21.855Z,98864.28
2022-11-16T13:25:19.160Z,98836.06
2022-11-16T13:28:10.280Z,98853.31
2022-11-16T13:31:32.759Z,98859.38
2022-11-16T13:34:27.374Z,98853.13
2022-11-16T13:37:34.281Z,98854.09
2022-11-16T13:40:28.708Z,98851.25
2022-11-16T13:43:13.629Z,98842.72
2022-11-16T13:46:00.742Z,98843.19
2022-11-16T13:48:46.753Z,98832.84
2022-11-16T13:51:32.091Z,98811.88
2022-11-16T13:54:49.198Z,98816.63
2022-11-16T13:57:34.747Z,98808.75
2022-11-16T14:00:23.303Z,98786.75
2022-11-16T14:03:17.623Z,98787.13
2022-11-16T14:06:02.818Z,98783.47
2022-11-16T14:08:58.502Z,98778.91
2022-11-16T14:11:43.572Z,98790.06
2022-11-16T14:15:04.024Z,98787.59
2022-11-16T14:17:57.079Z,98773.97
2022-11-16T14:21:09.998Z,98758.41
2022-11-16T14:24:13.341Z,98744.00
2022-11-16T14:27:16.185Z,98752.66
2022-11-16T14:30:19.131Z,98750.72
2022-11-16T14:33:04.303Z,98714.97
2022-11-16T14:35:52.735Z,98732.03
2022-11-16T14:38:44.844Z,98735.91
2022-11-16T14:41:30.198Z,98724.47
2022-11-16T14:44:21.735Z,98708.34
2022-11-16T14:47:20.497Z,98705.75
2022-11-16T14:50:18.638Z,98708.72
2022-11-16T14:53:07.246Z,98716.25
2022-11-16T14:55:52.289Z,98707.72
2022-11-16T14:58:38.339Z,98703.16
2022-11-16T15:01:27.756Z,98702.69
2022-11-16T15:04:17.544Z,98691.38
2022-11-16T15:07:05.240Z,98682.72
2022-11-16T15:09:53.968Z,98662.25
2022-11-16T15:12:42.961Z,98671.41
2022-11-16T15:15:30.231Z,98675.66
2022-11-16T15:18:20.643Z,98656.16
2022-11-16T15:21:06.279Z,98669.59
2022-11-16T15:24:08.570Z,98641.56
2022-11-16T15:27:12.078Z,98653.22
2022-11-16T15:30:00.994Z,98633.56
2022-11-16T15:32:48.794Z,98639.00
2022-11-16T15:35:36.607Z,98632.44
2022-11-16T15:38:24.737Z,98627.88
2022-11-16T15:41:10.396Z,98632.13
2022-11-16T15:44:15.303Z,98612.13
2022-11-16T15:47:02.981Z,98624.41
2022-11-16T15:49:53.039Z,98614.78
2022-11-16T15:52:50.353Z,98607.53
2022-11-16T15:55:40.499Z,98609.84
2022-11-16T15:58:28.469Z,98611.81
2022-11-16T16:01:15.368Z,98603.94
2022-11-16T16:04:08.016Z,98604.91
2022-11-16T16:06:54.945Z,98592.00
2022-11-16T16:09:40.935Z,98607.88
2022-11-16T16:12:26.790Z,98603.78
2022-11-16T16:15:40.129Z,98582.81
2022-11-16T16:18:40.462Z,98584.63
2022-11-16T16:21:35.351Z,98560.88
2022-11-16T16:24:37.449Z,98564.81
2022-11-16T16:27:24.841Z,98554.31
2022-11-16T16:30:14.492Z,98554.50
2022-11-16T16:33:00.394Z,98549.75
2022-11-16T16:35:49.561Z,98538.63
2022-11-16T16:38:34.454Z,98529.94
2022-11-16T16:41:24.218Z,98524.13
2022-11-16T16:44:15.942Z,98523.47
2022-11-16T16:47:01.268Z,98506.72
2022-11-16T16:49:47.138Z,98506.56
2022-11-16T16:52:32.035Z,98487.06
2022-11-16T16:55:17.298Z,98481.66
2022-11-16T16:58:02.883Z,98479.72
2022-11-16T17:00:48.101Z,98475.09
2022-11-16T17:03:33.734Z,98476.09
2022-11-16T17:06:19.011Z,98458.06
2022-11-16T17:09:04.623Z,98457.59
2022-11-16T17:11:49.734Z,98440.56
2022-11-16T17:14:34.792Z,98433.84
2022-11-16T17:17:21.185Z,98389.41
2022-11-16T17:20:06.596Z,98402.22
2022-11-16T17:22:51.863Z,98394.03
2022-11-16T17:25:37.903Z,98399.25
2022-11-16T17:28:23.019Z,98372.78
2022-11-16T17:31:11.292Z,98352.84
2022-11-16T17:33:59.509Z,98328.44
2022-11-16T17:36:44.901Z,98339.56
2022-11-16T17:39:29.992Z,98312.56
2022-11-16T17:42:15.045Z,98319.78
2022-11-16T17:45:00.289Z,98314.50
2022-11-16T17:47:45.539Z,98299.78
2022-11-16T17:50:30.564Z,98280.47
2022-11-16T17:53:15.693Z,98269.53
2022-11-16T17:56:01.223Z,98264.59
2022-11-16T17:58:46.714Z,98251.19
2022-11-16T18:01:32.177Z,98245.94
2022-11-16T18:04:17.711Z,98234.66
2022-11-16T18:07:02.756Z,98231.72
2022-11-16T18:09:47.983Z,98215.41
2022-11-16T18:12:33.037Z,98206.69
2022-11-16T18:15:39.259Z,98195.09
2022-11-16T18:18:23.107Z,98197.72
2022-11-16T18:21:09.781Z,98173.53
2022-11-16T18:23:55.585Z,98183.00
2022-11-16T18:26:41.517Z,98160.75
2022-11-16T18:29:26.546Z,98152.44
2022-11-16T18:32:11.705Z,98166.31
2022-11-16T18:34:56.583Z,98161.09
2022-11-16T18:37:42.056Z,98144.09
2022-11-16T18:40:27.003Z,98109.44
2022-11-16T18:43:13.158Z,98116.00
2022-11-16T18:45:58.365Z,98094.41
2022-11-16T18:48:43.413Z,98076.25
2022-11-16T18:51:29.204Z,98059.28
2022-11-16T18:54:14.194Z,98014.97
2022-11-16T18:56:59.475Z,98018.22
2022-11-16T18:59:44.481Z,97983.59
2022-11-16T19:02:29.734Z,97993.69
2022-11-16T19:05:14.974Z,97965.75
2022-11-16T19:08:00.125Z,97967.53
2022-11-16T19:10:45.127Z,97924.06
2022-11-16T19:13:30.013Z,97917.69
2022-11-16T19:16:15.269Z,97906.88
2022-11-16T19:19:01.665Z,97894.13
2022-11-16T19:21:46.695Z,97876.44
2022-11-16T19:24:31.908Z,97857.94
2022-11-16T19:27:17.010Z,97849.13
2022-11-16T19:30:02.028Z,97842.56
2022-11-16T19:32:47.400Z,97807.38
2022-11-16T19:35:32.742Z,97807.56
2022-11-16T19:38:18.004Z,97779.41
2022-11-16T19:41:03.312Z,97757.88
2022-11-16T19:43:51.263Z,97771.56
2022-11-16T19:46:36.508Z,97731.06
2022-11-16T19:49:21.797Z,97716.97
2022-11-16T19:52:06.888Z,97698.66
2022-11-16T19:54:51.844Z,97689.00
2022-11-16T19:57:36.899Z,97681.16
2022-11-16T20:00:22.258Z,97646.25
2022-11-16T20:03:07.545Z,97648.69
2022-11-16T20:05:52.464Z,97669.72
2022-11-16T20:08:39.425Z,97671.34
2022-11-16T20:11:29.446Z,97637.16
2022-11-16T20:14:14.966Z,97592.28
2022-11-16T20:16:59.892Z,97589.44
2022-11-16T20:19:44.829Z,97569.84
2022-11-16T20:22:29.620Z,97554.13
2022-11-16T20:25:15.894Z,97544.50
2022-11-16T20:28:01.189Z,97545.84
2022-11-16T20:30:47.558Z,97520.06
2022-11-16T20:33:34.441Z,97517.78
2022-11-16T20:36:20.224Z,97506.25
2022-11-16T20:39:05.305Z,97535.41
2022-11-16T20:41:50.736Z,97527.81
2022-11-16T20:44:35.712Z,97519.03
2022-11-16T20:47:20.639Z,97504.69
2022-11-16T20:50:05.861Z,97526.63
2022-11-16T20:52:52.823Z,97516.09
2022-11-16T20:55:38.333Z,97508.00
2022-11-16T20:58:24.197Z,97507.00
2022-11-16T21:01:13.192Z,97506.28
2022-11-16T21:04:01.040Z,97496.06
2022-11-16T21:06:46.204Z,97480.22
2022-11-16T21:09:51.058Z,97469.34
2022-11-16T21:12:54.956Z,97459.38
2022-11-16T21:15:40.238Z,97434.88
2022-11-16T21:18:30.497Z,97421.38
2022-11-16T21:21:16.207Z,97423.19
2022-11-16T21:24:01.593Z,97425.56
2022-11-16T21:26:46.808Z,97447.38
2022-11-16T21:29:31.765Z,97458.25
2022-11-16T21:32:16.919Z,97476.16
2022-11-16T21:35:02.047Z,97480.22
2022-11-16T21:37:47.041Z,97471.16
2022-11-16T21:40:32.026Z,97469.06
2022-11-16T21:43:17.459Z,97475.97
2022-11-16T21:46:07.735Z,97471.72
2022-11-16T21:48:55.371Z,97477.75
2022-11-16T21:51:40.413Z,97456.75
2022-11-16T21:54:45.397Z,97465.44
2022-11-16T21:57:30.474Z,97463.81
2022-11-16T22:00:16.192Z,97446.41
2022-11-16T22:03:01.135Z,97440.38
2022-11-16T22:06:08.841Z,97434.28
2022-11-16T22:08:56.971Z,97427.44
2022-11-16T22:11:42.361Z,97418.16
2022-11-16T22:14:27.445Z,97439.34
2022-11-16T22:17:12.587Z,97435.69
2022-11-16T22:19:57.554Z,97445.66
2022-11-16T22:22:42.798Z,97443.47
2022-11-16T22:25:28.346Z,97422.06
2022-11-16T22:28:20.794Z,97429.16
2022-11-16T22:31:09.481Z,97419.94
2022-11-16T22:33:54.674Z,97419.56
2022-11-16T22:36:39.798Z,97408.22
2022-11-16T22:39:24.801Z,97411.53
2022-11-16T22:42:11.371Z,97416.19
2022-11-16T22:44:56.253Z,97404.88
2022-11-16T22:47:41.474Z,97403.91
2022-11-16T22:50:26.790Z,97366.69
2022-11-16T22:53:12.048Z,97389.38
2022-11-16T22:56:03.899Z,97370.16
2022-11-16T22:58:49.116Z,97381.50
2022-11-16T23:01:34.428Z,97357.88
2022-11-16T23:04:19.626Z,97336.06
2022-11-16T23:07:04.553Z,97358.34
2022-11-16T23:09:49.458Z,97351.91
2022-11-16T23:12:53.015Z,97352.53
2022-11-16T23:15:50.222Z,97344.69
2022-11-16T23:18:35.324Z,97342.66
2022-11-16T23:21:40.639Z,97351.13
2022-11-16T23:24:44.649Z,97340.88
2022-11-16T23:27:36.971Z,97338.25
2022-11-16T23:30:22.963Z,97345.09
2022-11-16T23:33:08.810Z,97348.13
2022-11-16T23:35:53.853Z,97337.84
2022-11-16T23:38:39.880Z,97323.94
2022-11-16T23:41:43.657Z,97318.88
2022-11-16T23:44:28.853Z,97306.97
2022-11-16T23:47:14.045Z,97305.94
2022-11-16T23:49:59.177Z,97284.34
2022-11-16T23:52:44.208Z,97285.56
2022-11-16T23:55:31.575Z,97274.66
2022-11-16T23:58:16.850Z,97271.81
